sensor_id;sensor_type;location;lat;lon;timestamp;P1;durP1;ratioP1;P2;durP2;ratioP2
76712;SDS011;65640;43.154;25.658;2024-03-23T00:55:18;406.35;;;209.45;;
76712;SDS011;65640;43.154;25.658;2024-03-23T00:57:43;407.30;;;211.32;;
76712;SDS011;65640;43.154;25.658;2024-03-23T01:00:09;399.67;;;205.88;;
76712;SDS011;65640;43.154;25.658;2024-03-23T01:02:35;404.83;;;210.30;;
76712;SDS011;65640;43.154;25.658;2024-03-23T01:05:01;405.25;;;210.15;;
76712;SDS011;65640;43.154;25.658;2024-03-23T01:07:27;401.45;;;207.60;;
76712;SDS011;65640;43.154;25.658;2024-03-23T01:09:52;403.67;;;210.18;;
76712;SDS011;65640;43.154;25.658;2024-03-23T01:12:18;402.40;;;209.18;;
76712;SDS011;65640;43.154;25.658;2024-03-23T01:14:43;399.02;;;207.35;;
76712;SDS011;65640;43.154;25.658;2024-03-23T01:17:09;402.83;;;209.15;;
76712;SDS011;65640;43.154;25.658;2024-03-23T01:19:34;405.50;;;210.15;;
76712;SDS011;65640;43.154;25.658;2024-03-23T01:21:59;403.10;;;209.68;;
76712;SDS011;65640;43.154;25.658;2024-03-23T01:24:25;396.13;;;204.65;;
76712;SDS011;65640;43.154;25.658;2024-03-23T01:26:50;395.05;;;204.68;;
76712;SDS011;65640;43.154;25.658;2024-03-23T01:29:16;406.58;;;207.73;;
76712;SDS011;65640;43.154;25.658;2024-03-23T01:31:41;395.75;;;205.38;;
76712;SDS011;65640;43.154;25.658;2024-03-23T01:34:06;394.75;;;204.10;;
76712;SDS011;65640;43.154;25.658;2024-03-23T01:36:32;394.52;;;205.05;;
76712;SDS011;65640;43.154;25.658;2024-03-23T01:38:58;393.73;;;206.13;;
76712;SDS011;65640;43.154;25.658;2024-03-23T01:41:24;394.50;;;205.95;;
76712;SDS011;65640;43.154;25.658;2024-03-23T01:43:49;388.60;;;204.00;;
76712;SDS011;65640;43.154;25.658;2024-03-23T01:46:15;391.92;;;205.23;;
76712;SDS011;65640;43.154;25.658;2024-03-23T01:48:41;376.60;;;197.60;;
76712;SDS011;65640;43.154;25.658;2024-03-23T01:51:07;379.50;;;199.60;;
76712;SDS011;65640;43.154;25.658;2024-03-23T01:53:32;381.60;;;201.68;;
76712;SDS011;65640;43.154;25.658;2024-03-23T01:55:58;367.83;;;192.70;;
76712;SDS011;65640;43.154;25.658;2024-03-23T01:58:23;369.73;;;195.30;;
76712;SDS011;65640;43.154;25.658;2024-03-23T02:00:49;375.10;;;197.68;;
76712;SDS011;65640;43.154;25.658;2024-03-23T02:03:24;374.33;;;196.15;;
76712;SDS011;65640;43.154;25.658;2024-03-23T02:05:50;377.50;;;198.52;;
76712;SDS011;65640;43.154;25.658;2024-03-23T02:08:17;375.15;;;197.15;;
76712;SDS011;65640;43.154;25.658;2024-03-23T02:10:44;373.20;;;196.18;;
76712;SDS011;65640;43.154;25.658;2024-03-23T02:13:10;365.00;;;192.52;;
76712;SDS011;65640;43.154;25.658;2024-03-23T02:15:35;370.65;;;193.93;;
76712;SDS011;65640;43.154;25.658;2024-03-23T02:18:00;364.33;;;190.85;;
76712;SDS011;65640;43.154;25.658;2024-03-23T02:20:26;378.13;;;198.23;;
76712;SDS011;65640;43.154;25.658;2024-03-23T02:22:52;368.27;;;194.10;;
76712;SDS011;65640;43.154;25.658;2024-03-23T02:25:18;363.92;;;189.60;;
76712;SDS011;65640;43.154;25.658;2024-03-23T02:27:44;365.85;;;191.52;;
76712;SDS011;65640;43.154;25.658;2024-03-23T02:30:09;366.65;;;192.63;;
76712;SDS011;65640;43.154;25.658;2024-03-23T02:32:35;372.15;;;194.15;;
76712;SDS011;65640;43.154;25.658;2024-03-23T02:35:00;374.20;;;197.30;;
76712;SDS011;65640;43.154;25.658;2024-03-23T02:37:26;370.55;;;197.73;;
76712;SDS011;65640;43.154;25.658;2024-03-23T02:39:51;367.80;;;194.82;;
76712;SDS011;65640;43.154;25.658;2024-03-23T02:42:17;374.45;;;200.73;;
76712;SDS011;65640;43.154;25.658;2024-03-23T02:44:43;375.63;;;200.10;;
76712;SDS011;65640;43.154;25.658;2024-03-23T02:47:09;377.88;;;202.27;;
76712;SDS011;65640;43.154;25.658;2024-03-23T02:49:34;375.75;;;202.73;;
76712;SDS011;65640;43.154;25.658;2024-03-23T02:52:00;378.42;;;202.80;;
76712;SDS011;65640;43.154;25.658;2024-03-23T02:54:25;376.70;;;203.38;;
76712;SDS011;65640;43.154;25.658;2024-03-23T02:56:51;376.50;;;203.07;;
76712;SDS011;65640;43.154;25.658;2024-03-23T02:59:16;378.20;;;204.70;;
76712;SDS011;65640;43.154;25.658;2024-03-23T03:01:41;388.10;;;208.60;;
76712;SDS011;65640;43.154;25.658;2024-03-23T03:04:07;384.85;;;209.68;;
76712;SDS011;65640;43.154;25.658;2024-03-23T03:06:32;377.27;;;205.63;;
76712;SDS011;65640;43.154;25.658;2024-03-23T03:08:58;384.35;;;208.57;;
76712;SDS011;65640;43.154;25.658;2024-03-23T03:11:24;381.25;;;207.88;;
76712;SDS011;65640;43.154;25.658;2024-03-23T03:13:49;379.02;;;207.00;;
76712;SDS011;65640;43.154;25.658;2024-03-23T03:16:15;387.45;;;211.38;;
76712;SDS011;65640;43.154;25.658;2024-03-23T03:18:40;386.30;;;212.45;;
76712;SDS011;65640;43.154;25.658;2024-03-23T03:21:06;388.55;;;211.90;;
76712;SDS011;65640;43.154;25.658;2024-03-23T03:23:36;385.58;;;210.15;;
76712;SDS011;65640;43.154;25.658;2024-03-23T03:26:05;382.63;;;209.50;;
76712;SDS011;65640;43.154;25.658;2024-03-23T03:28:33;386.45;;;209.57;;
76712;SDS011;65640;43.154;25.658;2024-03-23T03:30:59;389.52;;;213.15;;
76712;SDS011;65640;43.154;25.658;2024-03-23T03:33:28;379.33;;;208.70;;
76712;SDS011;65640;43.154;25.658;2024-03-23T03:35:54;378.13;;;208.05;;
76712;SDS011;65640;43.154;25.658;2024-03-23T03:38:20;384.95;;;211.82;;
76712;SDS011;65640;43.154;25.658;2024-03-23T03:40:45;381.02;;;209.93;;
76712;SDS011;65640;43.154;25.658;2024-03-23T03:43:11;379.98;;;210.23;;
76712;SDS011;65640;43.154;25.658;2024-03-23T03:45:37;377.23;;;209.70;;
76712;SDS011;65640;43.154;25.658;2024-03-23T03:48:02;380.02;;;211.10;;
76712;SDS011;65640;43.154;25.658;2024-03-23T03:50:28;379.77;;;212.65;;
76712;SDS011;65640;43.154;25.658;2024-03-23T03:52:53;380.15;;;212.23;;
76712;SDS011;65640;43.154;25.658;2024-03-23T03:55:18;383.10;;;211.43;;
76712;SDS011;65640;43.154;25.658;2024-03-23T03:57:44;375.80;;;208.27;;
76712;SDS011;65640;43.154;25.658;2024-03-23T04:00:09;379.42;;;212.52;;
76712;SDS011;65640;43.154;25.658;2024-03-23T04:02:36;379.20;;;212.65;;
76712;SDS011;65640;43.154;25.658;2024-03-23T04:05:03;379.88;;;212.13;;
76712;SDS011;65640;43.154;25.658;2024-03-23T04:07:29;385.05;;;216.38;;
76712;SDS011;65640;43.154;25.658;2024-03-23T04:09:54;383.83;;;213.75;;
76712;SDS011;65640;43.154;25.658;2024-03-23T04:12:20;385.55;;;214.32;;
76712;SDS011;65640;43.154;25.658;2024-03-23T04:14:45;388.52;;;216.70;;
76712;SDS011;65640;43.154;25.658;2024-03-23T04:17:11;384.52;;;217.23;;
76712;SDS011;65640;43.154;25.658;2024-03-23T04:19:36;383.50;;;215.18;;
76712;SDS011;65640;43.154;25.658;2024-03-23T04:22:02;385.05;;;215.40;;
76712;SDS011;65640;43.154;25.658;2024-03-23T04:24:28;389.27;;;218.70;;
76712;SDS011;65640;43.154;25.658;2024-03-23T04:26:53;388.85;;;217.88;;
76712;SDS011;65640;43.154;25.658;2024-03-23T04:29:19;391.45;;;222.65;;
76712;SDS011;65640;43.154;25.658;2024-03-23T04:31:44;384.75;;;218.00;;
76712;SDS011;65640;43.154;25.658;2024-03-23T04:34:10;380.60;;;214.70;;
76712;SDS011;65640;43.154;25.658;2024-03-23T04:36:35;380.23;;;212.20;;
76712;SDS011;65640;43.154;25.658;2024-03-23T04:39:00;378.65;;;211.77;;
76712;SDS011;65640;43.154;25.658;2024-03-23T04:41:26;374.92;;;208.63;;
76712;SDS011;65640;43.154;25.658;2024-03-23T04:43:52;379.70;;;209.35;;
76712;SDS011;65640;43.154;25.658;2024-03-23T04:46:17;377.40;;;210.43;;
76712;SDS011;65640;43.154;25.658;2024-03-23T04:48:42;374.55;;;209.73;;
76712;SDS011;65640;43.154;25.658;2024-03-23T04:51:09;376.33;;;209.55;;
76712;SDS011;65640;43.154;25.658;2024-03-23T04:53:37;374.73;;;209.15;;
76712;SDS011;65640;43.154;25.658;2024-03-23T04:56:03;376.48;;;212.13;;
76712;SDS011;65640;43.154;25.658;2024-03-23T04:58:29;377.00;;;208.70;;
76712;SDS011;65640;43.154;25.658;2024-03-23T05:00:57;365.73;;;203.70;;
76712;SDS011;65640;43.154;25.658;2024-03-23T05:03:23;363.60;;;202.88;;
76712;SDS011;65640;43.154;25.658;2024-03-23T05:05:49;368.38;;;200.68;;
76712;SDS011;65640;43.154;25.658;2024-03-23T05:08:15;369.63;;;202.80;;
76712;SDS011;65640;43.154;25.658;2024-03-23T05:10:41;380.70;;;208.35;;
76712;SDS011;65640;43.154;25.658;2024-03-23T05:13:07;375.58;;;203.48;;
76712;SDS011;65640;43.154;25.658;2024-03-23T05:15:32;381.38;;;205.68;;
76712;SDS011;65640;43.154;25.658;2024-03-23T05:17:58;378.38;;;200.00;;
76712;SDS011;65640;43.154;25.658;2024-03-23T05:20:23;382.05;;;201.70;;
76712;SDS011;65640;43.154;25.658;2024-03-23T05:22:49;381.95;;;201.75;;
76712;SDS011;65640;43.154;25.658;2024-03-23T05:25:14;387.17;;;199.00;;
76712;SDS011;65640;43.154;25.658;2024-03-23T05:27:41;377.13;;;196.00;;
76712;SDS011;65640;43.154;25.658;2024-03-23T05:30:06;381.15;;;196.85;;
76712;SDS011;65640;43.154;25.658;2024-03-23T05:32:33;385.38;;;197.75;;
76712;SDS011;65640;43.154;25.658;2024-03-23T05:34:59;392.50;;;199.40;;
76712;SDS011;65640;43.154;25.658;2024-03-23T05:37:24;396.55;;;201.45;;
76712;SDS011;65640;43.154;25.658;2024-03-23T05:39:50;397.38;;;200.80;;
76712;SDS011;65640;43.154;25.658;2024-03-23T05:42:16;395.50;;;200.00;;
76712;SDS011;65640;43.154;25.658;2024-03-23T05:44:45;395.92;;;196.82;;
76712;SDS011;65640;43.154;25.658;2024-03-23T05:47:11;395.27;;;196.15;;
76712;SDS011;65640;43.154;25.658;2024-03-23T05:49:41;400.65;;;199.32;;
76712;SDS011;65640;43.154;25.658;2024-03-23T05:52:08;395.63;;;193.57;;
76712;SDS011;65640;43.154;25.658;2024-03-23T05:54:34;394.80;;;191.63;;
76712;SDS011;65640;43.154;25.658;2024-03-23T05:57:00;401.45;;;192.32;;
76712;SDS011;65640;43.154;25.658;2024-03-23T05:59:25;404.23;;;193.73;;
76712;SDS011;65640;43.154;25.658;2024-03-23T06:01:52;412.48;;;198.98;;
76712;SDS011;65640;43.154;25.658;2024-03-23T06:04:17;406.98;;;196.43;;
76712;SDS011;65640;43.154;25.658;2024-03-23T06:06:43;404.73;;;193.98;;
76712;SDS011;65640;43.154;25.658;2024-03-23T06:09:08;408.08;;;193.65;;
76712;SDS011;65640;43.154;25.658;2024-03-23T06:11:33;409.77;;;194.60;;
76712;SDS011;65640;43.154;25.658;2024-03-23T06:13:59;416.60;;;198.60;;
76712;SDS011;65640;43.154;25.658;2024-03-23T06:16:24;413.42;;;193.25;;
76712;SDS011;65640;43.154;25.658;2024-03-23T06:18:50;412.23;;;190.77;;
76712;SDS011;65640;43.154;25.658;2024-03-23T06:21:16;413.45;;;192.35;;
76712;SDS011;65640;43.154;25.658;2024-03-23T06:23:42;418.13;;;195.73;;
76712;SDS011;65640;43.154;25.658;2024-03-23T06:26:07;422.17;;;195.60;;
76712;SDS011;65640;43.154;25.658;2024-03-23T06:28:34;426.50;;;201.32;;
76712;SDS011;65640;43.154;25.658;2024-03-23T06:31:01;433.50;;;204.63;;
76712;SDS011;65640;43.154;25.658;2024-03-23T06:33:26;432.98;;;203.48;;
76712;SDS011;65640;43.154;25.658;2024-03-23T06:35:51;434.98;;;204.85;;
76712;SDS011;65640;43.154;25.658;2024-03-23T06:38:17;436.73;;;206.05;;
76712;SDS011;65640;43.154;25.658;2024-03-23T06:40:43;432.50;;;203.55;;
76712;SDS011;65640;43.154;25.658;2024-03-23T06:43:12;434.92;;;202.10;;
76712;SDS011;65640;43.154;25.658;2024-03-23T06:45:38;431.15;;;197.57;;
76712;SDS011;65640;43.154;25.658;2024-03-23T06:48:04;432.55;;;196.93;;
76712;SDS011;65640;43.154;25.658;2024-03-23T06:50:32;442.67;;;203.60;;
76712;SDS011;65640;43.154;25.658;2024-03-23T06:52:58;439.15;;;198.90;;
76712;SDS011;65640;43.154;25.658;2024-03-23T06:55:24;449.38;;;205.73;;
76712;SDS011;65640;43.154;25.658;2024-03-23T06:57:51;449.67;;;203.77;;
76712;SDS011;65640;43.154;25.658;2024-03-23T07:00:17;443.98;;;199.20;;
76712;SDS011;65640;43.154;25.658;2024-03-23T07:02:43;449.75;;;200.15;;
76712;SDS011;65640;43.154;25.658;2024-03-23T07:05:09;453.27;;;201.50;;
76712;SDS011;65640;43.154;25.658;2024-03-23T07:07:35;443.95;;;192.77;;
76712;SDS011;65640;43.154;25.658;2024-03-23T07:10:01;450.55;;;194.10;;
76712;SDS011;65640;43.154;25.658;2024-03-23T07:12:26;460.77;;;200.85;;
76712;SDS011;65640;43.154;25.658;2024-03-23T07:14:52;451.52;;;190.25;;
76712;SDS011;65640;43.154;25.658;2024-03-23T07:17:17;456.83;;;193.77;;
76712;SDS011;65640;43.154;25.658;2024-03-23T07:19:43;454.05;;;189.60;;
76712;SDS011;65640;43.154;25.658;2024-03-23T07:22:08;467.77;;;196.13;;
76712;SDS011;65640;43.154;25.658;2024-03-23T07:24:34;461.92;;;191.02;;
76712;SDS011;65640;43.154;25.658;2024-03-23T07:26:59;465.63;;;193.90;;
76712;SDS011;65640;43.154;25.658;2024-03-23T07:29:25;468.27;;;194.50;;
76712;SDS011;65640;43.154;25.658;2024-03-23T07:31:50;459.30;;;188.27;;
76712;SDS011;65640;43.154;25.658;2024-03-23T07:34:16;468.02;;;191.25;;
76712;SDS011;65640;43.154;25.658;2024-03-23T07:36:41;465.35;;;189.43;;
76712;SDS011;65640;43.154;25.658;2024-03-23T07:39:06;474.45;;;194.18;;
76712;SDS011;65640;43.154;25.658;2024-03-23T07:41:33;472.33;;;191.45;;
76712;SDS011;65640;43.154;25.658;2024-03-23T07:43:58;472.38;;;189.48;;
76712;SDS011;65640;43.154;25.658;2024-03-23T07:46:24;477.50;;;194.02;;
76712;SDS011;65640;43.154;25.658;2024-03-23T07:48:50;465.75;;;183.98;;
76712;SDS011;65640;43.154;25.658;2024-03-23T07:51:17;469.65;;;185.95;;
76712;SDS011;65640;43.154;25.658;2024-03-23T07:53:44;479.50;;;190.60;;
76712;SDS011;65640;43.154;25.658;2024-03-23T07:56:11;476.30;;;186.57;;
76712;SDS011;65640;43.154;25.658;2024-03-23T07:58:37;479.33;;;187.98;;
76712;SDS011;65640;43.154;25.658;2024-03-23T08:01:03;480.70;;;186.82;;
76712;SDS011;65640;43.154;25.658;2024-03-23T08:03:33;481.13;;;185.57;;
76712;SDS011;65640;43.154;25.658;2024-03-23T08:06:06;486.33;;;188.00;;
76712;SDS011;65640;43.154;25.658;2024-03-23T08:08:52;480.55;;;184.80;;
76712;SDS011;65640;43.154;25.658;2024-03-23T08:11:27;481.20;;;182.82;;
76712;SDS011;65640;43.154;25.658;2024-03-23T08:13:54;476.90;;;179.30;;
76712;SDS011;65640;43.154;25.658;2024-03-23T08:16:19;473.00;;;176.02;;
76712;SDS011;65640;43.154;25.658;2024-03-23T08:18:45;486.52;;;182.73;;
76712;SDS011;65640;43.154;25.658;2024-03-23T08:21:10;481.15;;;180.07;;
76712;SDS011;65640;43.154;25.658;2024-03-23T08:23:36;486.52;;;182.15;;
76712;SDS011;65640;43.154;25.658;2024-03-23T08:28:32;474.08;;;177.18;;
76712;SDS011;65640;43.154;25.658;2024-03-23T08:31:00;479.92;;;176.75;;
76712;SDS011;65640;43.154;25.658;2024-03-23T08:33:27;488.30;;;179.93;;
76712;SDS011;65640;43.154;25.658;2024-03-23T08:35:56;485.50;;;176.77;;
76712;SDS011;65640;43.154;25.658;2024-03-23T08:38:23;479.85;;;173.32;;
76712;SDS011;65640;43.154;25.658;2024-03-23T08:40:58;480.08;;;173.55;;
76712;SDS011;65640;43.154;25.658;2024-03-23T08:43:24;481.17;;;173.95;;
76712;SDS011;65640;43.154;25.658;2024-03-23T08:45:50;497.85;;;181.18;;
76712;SDS011;65640;43.154;25.658;2024-03-23T08:48:17;494.95;;;179.90;;
76712;SDS011;65640;43.154;25.658;2024-03-23T08:50:43;478.58;;;172.57;;
76712;SDS011;65640;43.154;25.658;2024-03-23T08:53:08;492.10;;;180.15;;
76712;SDS011;65640;43.154;25.658;2024-03-23T08:55:34;483.83;;;173.98;;
76712;SDS011;65640;43.154;25.658;2024-03-23T08:58:00;480.42;;;171.60;;
76712;SDS011;65640;43.154;25.658;2024-03-23T09:00:26;479.08;;;169.30;;
76712;SDS011;65640;43.154;25.658;2024-03-23T09:02:51;483.98;;;171.73;;
76712;SDS011;65640;43.154;25.658;2024-03-23T09:05:16;451.10;;;157.68;;
76712;SDS011;65640;43.154;25.658;2024-03-23T09:07:42;468.10;;;163.70;;
76712;SDS011;65640;43.154;25.658;2024-03-23T09:10:07;480.17;;;169.45;;
76712;SDS011;65640;43.154;25.658;2024-03-23T09:12:33;481.95;;;168.70;;
76712;SDS011;65640;43.154;25.658;2024-03-23T09:14:58;484.85;;;167.82;;
76712;SDS011;65640;43.154;25.658;2024-03-23T09:17:24;476.25;;;163.40;;
76712;SDS011;65640;43.154;25.658;2024-03-23T09:19:49;476.33;;;163.77;;
76712;SDS011;65640;43.154;25.658;2024-03-23T09:22:14;460.42;;;155.73;;
76712;SDS011;65640;43.154;25.658;2024-03-23T09:24:40;456.92;;;155.85;;
76712;SDS011;65640;43.154;25.658;2024-03-23T09:27:05;472.20;;;163.00;;
76712;SDS011;65640;43.154;25.658;2024-03-23T09:29:31;462.80;;;157.38;;
76712;SDS011;65640;43.154;25.658;2024-03-23T09:31:56;469.60;;;160.15;;
76712;SDS011;65640;43.154;25.658;2024-03-23T09:34:22;469.30;;;159.13;;
76712;SDS011;65640;43.154;25.658;2024-03-23T09:36:50;480.85;;;163.25;;
76712;SDS011;65640;43.154;25.658;2024-03-23T09:39:16;488.23;;;165.88;;
76712;SDS011;65640;43.154;25.658;2024-03-23T09:41:42;476.65;;;162.73;;
76712;SDS011;65640;43.154;25.658;2024-03-23T09:44:08;479.55;;;159.52;;
76712;SDS011;65640;43.154;25.658;2024-03-23T09:46:34;467.20;;;156.55;;
76712;SDS011;65640;43.154;25.658;2024-03-23T09:49:01;457.38;;;153.23;;
76712;SDS011;65640;43.154;25.658;2024-03-23T09:51:31;469.67;;;157.32;;
76712;SDS011;65640;43.154;25.658;2024-03-23T09:53:57;455.63;;;154.20;;
76712;SDS011;65640;43.154;25.658;2024-03-23T09:56:22;457.50;;;154.80;;
76712;SDS011;65640;43.154;25.658;2024-03-23T09:58:48;485.77;;;163.23;;
76712;SDS011;65640;43.154;25.658;2024-03-23T10:01:14;486.95;;;165.05;;
76712;SDS011;65640;43.154;25.658;2024-03-23T10:03:46;474.58;;;160.35;;
76712;SDS011;65640;43.154;25.658;2024-03-23T10:06:11;467.00;;;156.38;;
76712;SDS011;65640;43.154;25.658;2024-03-23T10:08:36;446.77;;;149.13;;
76712;SDS011;65640;43.154;25.658;2024-03-23T10:11:15;471.88;;;156.82;;
76712;SDS011;65640;43.154;25.658;2024-03-23T10:13:44;453.35;;;151.07;;
76712;SDS011;65640;43.154;25.658;2024-03-23T10:16:11;456.35;;;152.55;;
76712;SDS011;65640;43.154;25.658;2024-03-23T10:18:37;451.92;;;151.23;;
76712;SDS011;65640;43.154;25.658;2024-03-23T10:23:35;432.17;;;144.13;;
76712;SDS011;65640;43.154;25.658;2024-03-23T10:26:17;452.50;;;150.43;;
76712;SDS011;65640;43.154;25.658;2024-03-23T10:31:18;467.77;;;156.93;;
76712;SDS011;65640;43.154;25.658;2024-03-23T10:33:47;450.40;;;150.15;;
76712;SDS011;65640;43.154;25.658;2024-03-23T10:36:13;448.88;;;149.80;;
76712;SDS011;65640;43.154;25.658;2024-03-23T10:38:40;445.45;;;148.55;;
76712;SDS011;65640;43.154;25.658;2024-03-23T10:41:06;440.25;;;147.27;;
76712;SDS011;65640;43.154;25.658;2024-03-23T10:43:33;438.92;;;146.82;;
76712;SDS011;65640;43.154;25.658;2024-03-23T10:45:59;434.30;;;144.85;;
76712;SDS011;65640;43.154;25.658;2024-03-23T10:48:24;438.85;;;147.57;;
76712;SDS011;65640;43.154;25.658;2024-03-23T10:50:50;443.70;;;148.85;;
76712;SDS011;65640;43.154;25.658;2024-03-23T10:53:15;451.33;;;151.48;;
76712;SDS011;65640;43.154;25.658;2024-03-23T10:55:42;478.50;;;161.80;;
76712;SDS011;65640;43.154;25.658;2024-03-23T10:58:09;450.40;;;150.63;;
76712;SDS011;65640;43.154;25.658;2024-03-23T11:00:37;448.65;;;147.93;;
76712;SDS011;65640;43.154;25.658;2024-03-23T11:03:46;440.33;;;146.20;;
76712;SDS011;65640;43.154;25.658;2024-03-23T11:05:55;441.33;;;146.63;;
76712;SDS011;65640;43.154;25.658;2024-03-23T11:08:31;441.45;;;146.50;;
76712;SDS011;65640;43.154;25.658;2024-03-23T11:11:11;449.40;;;148.50;;
76712;SDS011;65640;43.154;25.658;2024-03-23T11:13:37;442.17;;;146.98;;
76712;SDS011;65640;43.154;25.658;2024-03-23T11:16:16;462.63;;;153.20;;
76712;SDS011;65640;43.154;25.658;2024-03-23T11:18:46;456.55;;;152.32;;
76712;SDS011;65640;43.154;25.658;2024-03-23T11:21:13;449.48;;;149.77;;
76712;SDS011;65640;43.154;25.658;2024-03-23T11:24:15;463.23;;;154.32;;
76712;SDS011;65640;43.154;25.658;2024-03-23T11:26:41;467.17;;;154.00;;
76712;SDS011;65640;43.154;25.658;2024-03-23T11:29:10;464.27;;;154.18;;
76712;SDS011;65640;43.154;25.658;2024-03-23T11:34:10;475.73;;;160.07;;
76712;SDS011;65640;43.154;25.658;2024-03-23T11:36:37;463.38;;;156.57;;
76712;SDS011;65640;43.154;25.658;2024-03-23T11:39:18;444.27;;;147.60;;
76712;SDS011;65640;43.154;25.658;2024-03-23T11:41:51;431.75;;;144.23;;
76712;SDS011;65640;43.154;25.658;2024-03-23T11:44:18;430.25;;;143.05;;
76712;SDS011;65640;43.154;25.658;2024-03-23T11:46:44;435.17;;;142.88;;
76712;SDS011;65640;43.154;25.658;2024-03-23T11:49:26;431.88;;;142.35;;
76712;SDS011;65640;43.154;25.658;2024-03-23T11:51:53;453.88;;;150.35;;
76712;SDS011;65640;43.154;25.658;2024-03-23T11:54:20;450.42;;;149.93;;
76712;SDS011;65640;43.154;25.658;2024-03-23T11:56:58;442.85;;;146.63;;
76712;SDS011;65640;43.154;25.658;2024-03-23T11:59:34;428.50;;;142.00;;
76712;SDS011;65640;43.154;25.658;2024-03-23T12:02:08;435.10;;;145.05;;
76712;SDS011;65640;43.154;25.658;2024-03-23T12:04:39;432.73;;;143.75;;
76712;SDS011;65640;43.154;25.658;2024-03-23T12:07:15;443.95;;;146.75;;
76712;SDS011;65640;43.154;25.658;2024-03-23T12:09:45;438.00;;;145.77;;
76712;SDS011;65640;43.154;25.658;2024-03-23T12:14:42;439.30;;;145.82;;
76712;SDS011;65640;43.154;25.658;2024-03-23T12:17:11;452.20;;;149.85;;
76712;SDS011;65640;43.154;25.658;2024-03-23T12:19:38;446.95;;;148.13;;
76712;SDS011;65640;43.154;25.658;2024-03-23T12:22:04;449.23;;;148.38;;
76712;SDS011;65640;43.154;25.658;2024-03-23T12:24:31;452.77;;;151.40;;
76712;SDS011;65640;43.154;25.658;2024-03-23T12:26:59;458.30;;;151.63;;
76712;SDS011;65640;43.154;25.658;2024-03-23T12:29:26;471.38;;;157.63;;
76712;SDS011;65640;43.154;25.658;2024-03-23T12:31:53;467.92;;;155.82;;
76712;SDS011;65640;43.154;25.658;2024-03-23T12:34:18;438.17;;;145.35;;
76712;SDS011;65640;43.154;25.658;2024-03-23T12:36:43;458.77;;;151.45;;
76712;SDS011;65640;43.154;25.658;2024-03-23T12:39:09;464.63;;;154.07;;
76712;SDS011;65640;43.154;25.658;2024-03-23T12:41:34;464.10;;;153.43;;
76712;SDS011;65640;43.154;25.658;2024-03-23T12:43:59;440.05;;;145.82;;
76712;SDS011;65640;43.154;25.658;2024-03-23T12:46:25;439.98;;;144.98;;
76712;SDS011;65640;43.154;25.658;2024-03-23T12:48:50;448.05;;;148.35;;
76712;SDS011;65640;43.154;25.658;2024-03-23T12:51:16;466.75;;;153.95;;
76712;SDS011;65640;43.154;25.658;2024-03-23T12:53:41;450.60;;;149.07;;
76712;SDS011;65640;43.154;25.658;2024-03-23T12:56:07;453.15;;;150.45;;
76712;SDS011;65640;43.154;25.658;2024-03-23T12:58:32;455.88;;;151.68;;
76712;SDS011;65640;43.154;25.658;2024-03-23T13:01:00;455.90;;;151.20;;
76712;SDS011;65640;43.154;25.658;2024-03-23T13:03:26;453.38;;;149.00;;
76712;SDS011;65640;43.154;25.658;2024-03-23T13:05:51;448.98;;;148.88;;
76712;SDS011;65640;43.154;25.658;2024-03-23T13:08:17;450.10;;;148.85;;
76712;SDS011;65640;43.154;25.658;2024-03-23T13:10:43;455.30;;;150.07;;
76712;SDS011;65640;43.154;25.658;2024-03-23T13:13:09;449.00;;;147.85;;
76712;SDS011;65640;43.154;25.658;2024-03-23T13:15:36;450.48;;;149.40;;
76712;SDS011;65640;43.154;25.658;2024-03-23T13:18:02;460.60;;;152.77;;
76712;SDS011;65640;43.154;25.658;2024-03-23T13:20:27;456.17;;;149.23;;
76712;SDS011;65640;43.154;25.658;2024-03-23T13:22:52;441.33;;;145.70;;
76712;SDS011;65640;43.154;25.658;2024-03-23T13:25:18;451.58;;;148.65;;
76712;SDS011;65640;43.154;25.658;2024-03-23T13:27:44;452.10;;;149.88;;
76712;SDS011;65640;43.154;25.658;2024-03-23T13:30:10;448.50;;;147.98;;
76712;SDS011;65640;43.154;25.658;2024-03-23T13:32:35;442.75;;;146.18;;
76712;SDS011;65640;43.154;25.658;2024-03-23T13:35:01;441.10;;;146.23;;
76712;SDS011;65640;43.154;25.658;2024-03-23T13:37:26;428.40;;;142.48;;
76712;SDS011;65640;43.154;25.658;2024-03-23T13:39:52;423.20;;;141.95;;
76712;SDS011;65640;43.154;25.658;2024-03-23T13:42:17;445.67;;;148.93;;
76712;SDS011;65640;43.154;25.658;2024-03-23T13:44:43;450.20;;;148.90;;
76712;SDS011;65640;43.154;25.658;2024-03-23T13:47:08;444.40;;;147.35;;
76712;SDS011;65640;43.154;25.658;2024-03-23T13:49:33;437.40;;;144.52;;
76712;SDS011;65640;43.154;25.658;2024-03-23T13:51:59;429.88;;;142.80;;
76712;SDS011;65640;43.154;25.658;2024-03-23T13:54:25;437.52;;;143.57;;
76712;SDS011;65640;43.154;25.658;2024-03-23T13:56:51;411.88;;;136.50;;
76712;SDS011;65640;43.154;25.658;2024-03-23T13:59:18;431.63;;;144.10;;
76712;SDS011;65640;43.154;25.658;2024-03-23T14:01:43;437.15;;;146.27;;
76712;SDS011;65640;43.154;25.658;2024-03-23T14:04:10;427.55;;;143.43;;
76712;SDS011;65640;43.154;25.658;2024-03-23T14:06:36;445.92;;;147.90;;
76712;SDS011;65640;43.154;25.658;2024-03-23T14:09:01;446.95;;;148.57;;
76712;SDS011;65640;43.154;25.658;2024-03-23T14:11:28;438.35;;;145.52;;
76712;SDS011;65640;43.154;25.658;2024-03-23T14:13:54;440.30;;;146.35;;
76712;SDS011;65640;43.154;25.658;2024-03-23T14:16:19;425.23;;;142.38;;
76712;SDS011;65640;43.154;25.658;2024-03-23T14:18:48;447.80;;;148.98;;
76712;SDS011;65640;43.154;25.658;2024-03-23T14:21:13;419.08;;;139.05;;
76712;SDS011;65640;43.154;25.658;2024-03-23T14:23:38;414.10;;;137.40;;
76712;SDS011;65640;43.154;25.658;2024-03-23T14:26:06;424.83;;;140.27;;
76712;SDS011;65640;43.154;25.658;2024-03-23T14:28:31;438.23;;;144.88;;
76712;SDS011;65640;43.154;25.658;2024-03-23T14:30:57;417.38;;;138.52;;
76712;SDS011;65640;43.154;25.658;2024-03-23T14:33:22;411.88;;;137.15;;
76712;SDS011;65640;43.154;25.658;2024-03-23T14:35:52;402.77;;;135.50;;
76712;SDS011;65640;43.154;25.658;2024-03-23T14:40:47;411.60;;;137.07;;
76712;SDS011;65640;43.154;25.658;2024-03-23T14:43:12;418.05;;;138.73;;
76712;SDS011;65640;43.154;25.658;2024-03-23T14:45:48;405.02;;;134.60;;
76712;SDS011;65640;43.154;25.658;2024-03-23T14:48:33;427.55;;;142.38;;
76712;SDS011;65640;43.154;25.658;2024-03-23T14:50:59;420.63;;;139.75;;